sensor_id;sensor_type;location;lat;lon;timestamp;temperature;humidity
66373;SHT30;53168;51.146;17.120;2023-10-19T00:01:23;5.25;72.04
66373;SHT30;53168;51.146;17.120;2023-10-19T00:07:25;5.27;72.15
66373;SHT30;53168;51.146;17.120;2023-10-19T00:10:05;5.28;72.20
66373;SHT30;53168;51.146;17.120;2023-10-19T00:12:40;5.30;72.18
66373;SHT30;53168;51.146;17.120;2023-10-19T00:15:25;5.32;72.14
66373;SHT30;53168;51.146;17.120;2023-10-19T00:18:03;5.34;72.15
66373;SHT30;53168;51.146;17.120;2023-10-19T00:20:53;5.34;72.10
66373;SHT30;53168;51.146;17.120;2023-10-19T00:23:43;5.34;72.19
66373;SHT30;53168;51.146;17.120;2023-10-19T00:26:18;5.33;72.20
66373;SHT30;53168;51.146;17.120;2023-10-19T00:29:00;5.33;72.20
66373;SHT30;53168;51.146;17.120;2023-10-19T00:31:45;5.33;72.20
66373;SHT30;53168;51.146;17.120;2023-10-19T00:34:21;5.31;72.21
66373;SHT30;53168;51.146;17.120;2023-10-19T00:36:55;5.30;72.20
66373;SHT30;53168;51.146;17.120;2023-10-19T00:39:32;5.29;72.27
66373;SHT30;53168;51.146;17.120;2023-10-19T00:42:14;5.26;72.33
66373;SHT30;53168;51.146;17.120;2023-10-19T00:44:55;5.23;72.38
66373;SHT30;53168;51.146;17.120;2023-10-19T00:47:35;5.21;72.50
66373;SHT30;53168;51.146;17.120;2023-10-19T00:50:15;5.19;72.61
66373;SHT30;53168;51.146;17.120;2023-10-19T00:52:53;5.16;72.52
66373;SHT30;53168;51.146;17.120;2023-10-19T00:55:29;5.15;72.57
66373;SHT30;53168;51.146;17.120;2023-10-19T00:58:06;5.14;72.71
66373;SHT30;53168;51.146;17.120;2023-10-19T01:00:48;5.13;72.70
66373;SHT30;53168;51.146;17.120;2023-10-19T01:03:26;5.12;72.70
66373;SHT30;53168;51.146;17.120;2023-10-19T01:06:04;5.10;72.81
66373;SHT30;53168;51.146;17.120;2023-10-19T01:08:43;5.09;72.80
66373;SHT30;53168;51.146;17.120;2023-10-19T01:11:17;5.08;72.80
66373;SHT30;53168;51.146;17.120;2023-10-19T01:13:52;5.08;72.80
66373;SHT30;53168;51.146;17.120;2023-10-19T01:16:26;5.03;72.95
66373;SHT30;53168;51.146;17.120;2023-10-19T01:19:03;5.01;73.00
66373;SHT30;53168;51.146;17.120;2023-10-19T01:21:39;5.00;73.00
66373;SHT30;53168;51.146;17.120;2023-10-19T01:24:16;4.98;73.03
66373;SHT30;53168;51.146;17.120;2023-10-19T01:26:57;4.96;73.19
66373;SHT30;53168;51.146;17.120;2023-10-19T01:29:31;4.93;73.26
66373;SHT30;53168;51.146;17.120;2023-10-19T01:32:06;4.92;73.27
66373;SHT30;53168;51.146;17.120;2023-10-19T01:34:45;4.93;73.25
66373;SHT30;53168;51.146;17.120;2023-10-19T01:37:18;4.94;73.20
66373;SHT30;53168;51.146;17.120;2023-10-19T01:39:52;4.94;73.21
66373;SHT30;53168;51.146;17.120;2023-10-19T01:42:26;4.93;73.26
66373;SHT30;53168;51.146;17.120;2023-10-19T01:45:02;4.94;73.27
66373;SHT30;53168;51.146;17.120;2023-10-19T01:47:37;4.94;73.30
66373;SHT30;53168;51.146;17.120;2023-10-19T01:50:14;4.92;73.37
66373;SHT30;53168;51.146;17.120;2023-10-19T01:52:53;4.91;73.40
66373;SHT30;53168;51.146;17.120;2023-10-19T01:55:27;4.89;73.43
66373;SHT30;53168;51.146;17.120;2023-10-19T01:58:05;4.89;73.47
66373;SHT30;53168;51.146;17.120;2023-10-19T02:00:41;4.88;73.54
66373;SHT30;53168;51.146;17.120;2023-10-19T02:03:14;4.86;73.55
66373;SHT30;53168;51.146;17.120;2023-10-19T02:05:50;4.84;73.70
66373;SHT30;53168;51.146;17.120;2023-10-19T02:08:32;4.83;73.73
66373;SHT30;53168;51.146;17.120;2023-10-19T02:11:09;4.84;73.90
66373;SHT30;53168;51.146;17.120;2023-10-19T02:13:48;4.83;73.97
66373;SHT30;53168;51.146;17.120;2023-10-19T02:16:23;4.83;73.90
66373;SHT30;53168;51.146;17.120;2023-10-19T02:19:00;4.82;73.90
66373;SHT30;53168;51.146;17.120;2023-10-19T02:21:34;4.82;73.92
66373;SHT30;53168;51.146;17.120;2023-10-19T02:24:11;4.81;74.00
66373;SHT30;53168;51.146;17.120;2023-10-19T02:26:50;4.79;74.03
66373;SHT30;53168;51.146;17.120;2023-10-19T02:29:24;4.78;74.05
66373;SHT30;53168;51.146;17.120;2023-10-19T02:31:59;4.75;74.10
66373;SHT30;53168;51.146;17.120;2023-10-19T02:34:39;4.73;74.18
66373;SHT30;53168;51.146;17.120;2023-10-19T02:37:13;4.72;74.20
66373;SHT30;53168;51.146;17.120;2023-10-19T02:39:47;4.72;74.20
66373;SHT30;53168;51.146;17.120;2023-10-19T02:42:21;4.70;74.28
66373;SHT30;53168;51.146;17.120;2023-10-19T02:44:55;4.70;74.28
66373;SHT30;53168;51.146;17.120;2023-10-19T02:47:30;4.69;74.27
66373;SHT30;53168;51.146;17.120;2023-10-19T02:50:06;4.70;74.30
66373;SHT30;53168;51.146;17.120;2023-10-19T02:52:47;4.70;74.31
66373;SHT30;53168;51.146;17.120;2023-10-19T02:55:21;4.69;74.37
66373;SHT30;53168;51.146;17.120;2023-10-19T02:57:57;4.68;74.40
66373;SHT30;53168;51.146;17.120;2023-10-19T03:00:31;4.68;74.41
66373;SHT30;53168;51.146;17.120;2023-10-19T03:03:07;4.69;74.48
66373;SHT30;53168;51.146;17.120;2023-10-19T03:05:44;4.71;74.50
66373;SHT30;53168;51.146;17.120;2023-10-19T03:08:19;4.71;74.55
66373;SHT30;53168;51.146;17.120;2023-10-19T03:10:55;4.72;74.60
66373;SHT30;53168;51.146;17.120;2023-10-19T03:13:35;4.71;74.71
66373;SHT30;53168;51.146;17.120;2023-10-19T03:16:11;4.72;74.75
66373;SHT30;53168;51.146;17.120;2023-10-19T03:18:46;4.72;74.81
66373;SHT30;53168;51.146;17.120;2023-10-19T03:21:22;4.72;74.83
66373;SHT30;53168;51.146;17.120;2023-10-19T03:23:58;4.72;74.80
66373;SHT30;53168;51.146;17.120;2023-10-19T03:26:36;4.72;74.91
66373;SHT30;53168;51.146;17.120;2023-10-19T03:29:14;4.73;74.89
66373;SHT30;53168;51.146;17.120;2023-10-19T03:31:54;4.74;74.86
66373;SHT30;53168;51.146;17.120;2023-10-19T03:34:28;4.74;74.86
66373;SHT30;53168;51.146;17.120;2023-10-19T03:37:07;4.73;75.00
66373;SHT30;53168;51.146;17.120;2023-10-19T03:39:43;4.74;74.92
66373;SHT30;53168;51.146;17.120;2023-10-19T03:42:17;4.75;74.90
66373;SHT30;53168;51.146;17.120;2023-10-19T03:44:53;4.76;74.95
66373;SHT30;53168;51.146;17.120;2023-10-19T03:47:29;4.78;74.95
66373;SHT30;53168;51.146;17.120;2023-10-19T03:50:07;4.77;74.96
66373;SHT30;53168;51.146;17.120;2023-10-19T03:52:45;4.79;74.98
66373;SHT30;53168;51.146;17.120;2023-10-19T03:55:19;4.80;74.99
66373;SHT30;53168;51.146;17.120;2023-10-19T03:57:54;4.82;74.98
66373;SHT30;53168;51.146;17.120;2023-10-19T04:29:10;5.26;74.72
66373;SHT30;53168;51.146;17.120;2023-10-19T04:31:48;5.29;74.69
66373;SHT30;53168;51.146;17.120;2023-10-19T04:34:25;5.30;74.67
66373;SHT30;53168;51.146;17.120;2023-10-19T04:37:00;5.31;74.68
66373;SHT30;53168;51.146;17.120;2023-10-19T04:39:35;5.31;74.67
66373;SHT30;53168;51.146;17.120;2023-10-19T04:42:12;5.32;74.69
66373;SHT30;53168;51.146;17.120;2023-10-19T04:45:13;5.33;74.70
66373;SHT30;53168;51.146;17.120;2023-10-19T04:47:52;5.35;74.70
66373;SHT30;53168;51.146;17.120;2023-10-19T04:50:26;5.34;74.70
66373;SHT30;53168;51.146;17.120;2023-10-19T04:53:02;5.34;74.69
66373;SHT30;53168;51.146;17.120;2023-10-19T04:55:37;5.36;74.66
66373;SHT30;53168;51.146;17.120;2023-10-19T04:58:10;5.38;74.64
66373;SHT30;53168;51.146;17.120;2023-10-19T05:00:45;5.39;74.70
66373;SHT30;53168;51.146;17.120;2023-10-19T05:03:21;5.41;74.70
66373;SHT30;53168;51.146;17.120;2023-10-19T05:05:56;5.43;74.70
66373;SHT30;53168;51.146;17.120;2023-10-19T05:08:30;5.46;74.68
66373;SHT30;53168;51.146;17.120;2023-10-19T05:11:04;5.46;74.65
66373;SHT30;53168;51.146;17.120;2023-10-19T05:13:37;5.47;74.67
66373;SHT30;53168;51.146;17.120;2023-10-19T05:16:11;5.47;74.64
66373;SHT30;53168;51.146;17.120;2023-10-19T05:18:49;5.49;74.66
66373;SHT30;53168;51.146;17.120;2023-10-19T05:21:23;5.51;74.66
66373;SHT30;53168;51.146;17.120;2023-10-19T05:23:56;5.54;74.60
66373;SHT30;53168;51.146;17.120;2023-10-19T05:26:34;5.55;74.60
66373;SHT30;53168;51.146;17.120;2023-10-19T05:29:08;5.55;74.61
66373;SHT30;53168;51.146;17.120;2023-10-19T05:31:45;5.57;74.64
66373;SHT30;53168;51.146;17.120;2023-10-19T05:34:26;5.58;74.62
66373;SHT30;53168;51.146;17.120;2023-10-19T05:37:03;5.60;74.60
66373;SHT30;53168;51.146;17.120;2023-10-19T05:39:38;5.61;74.60
66373;SHT30;53168;51.146;17.120;2023-10-19T05:42:28;5.63;74.60
66373;SHT30;53168;51.146;17.120;2023-10-19T05:45:02;5.64;74.56
66373;SHT30;53168;51.146;17.120;2023-10-19T05:47:37;5.67;74.54
66373;SHT30;53168;51.146;17.120;2023-10-19T05:50:12;5.70;74.51
66373;SHT30;53168;51.146;17.120;2023-10-19T05:52:47;5.73;74.50
66373;SHT30;53168;51.146;17.120;2023-10-19T05:55:21;5.78;74.50
66373;SHT30;53168;51.146;17.120;2023-10-19T05:57:55;5.84;74.45
66373;SHT30;53168;51.146;17.120;2023-10-19T06:00:29;5.89;74.40
66373;SHT30;53168;51.146;17.120;2023-10-19T06:03:04;5.95;74.31
66373;SHT30;53168;51.146;17.120;2023-10-19T06:05:38;6.01;74.24
66373;SHT30;53168;51.146;17.120;2023-10-19T06:08:14;6.05;74.21
66373;SHT30;53168;51.146;17.120;2023-10-19T06:11:00;6.10;74.20
66373;SHT30;53168;51.146;17.120;2023-10-19T06:13:38;6.16;74.15
66373;SHT30;53168;51.146;17.120;2023-10-19T06:16:11;6.21;74.11
66373;SHT30;53168;51.146;17.120;2023-10-19T06:18:46;6.26;74.01
66373;SHT30;53168;51.146;17.120;2023-10-19T06:21:22;6.30;73.98
66373;SHT30;53168;51.146;17.120;2023-10-19T06:24:01;6.32;73.92
66373;SHT30;53168;51.146;17.120;2023-10-19T06:26:39;6.37;73.90
66373;SHT30;53168;51.146;17.120;2023-10-19T06:29:13;6.42;73.89
66373;SHT30;53168;51.146;17.120;2023-10-19T06:31:46;6.47;73.83
66373;SHT30;53168;51.146;17.120;2023-10-19T06:34:21;6.47;73.89
66373;SHT30;53168;51.146;17.120;2023-10-19T06:36:57;6.51;73.81
66373;SHT30;53168;51.146;17.120;2023-10-19T06:39:31;6.57;73.77
66373;SHT30;53168;51.146;17.120;2023-10-19T06:42:05;6.63;73.73
66373;SHT30;53168;51.146;17.120;2023-10-19T06:44:46;6.68;73.74
66373;SHT30;53168;51.146;17.120;2023-10-19T06:47:24;6.76;73.70
66373;SHT30;53168;51.146;17.120;2023-10-19T06:49:59;6.84;73.69
66373;SHT30;53168;51.146;17.120;2023-10-19T06:52:35;6.91;73.54
66373;SHT30;53168;51.146;17.120;2023-10-19T06:55:11;6.94;73.44
66373;SHT30;53168;51.146;17.120;2023-10-19T06:57:50;6.96;73.41
66373;SHT30;53168;51.146;17.120;2023-10-19T07:00:26;6.99;73.41
66373;SHT30;53168;51.146;17.120;2023-10-19T07:03:00;7.02;73.36
66373;SHT30;53168;51.146;17.120;2023-10-19T07:05:36;7.06;73.34
66373;SHT30;53168;51.146;17.120;2023-10-19T07:08:10;7.10;73.29
66373;SHT30;53168;51.146;17.120;2023-10-19T07:10:43;7.14;73.31
66373;SHT30;53168;51.146;17.120;2023-10-19T07:13:17;7.19;73.30
66373;SHT30;53168;51.146;17.120;2023-10-19T07:15:53;7.22;73.31
66373;SHT30;53168;51.146;17.120;2023-10-19T07:18:27;7.26;73.38
66373;SHT30;53168;51.146;17.120;2023-10-19T07:21:01;7.32;73.50
66373;SHT30;53168;51.146;17.120;2023-10-19T07:23:36;7.36;73.52
66373;SHT30;53168;51.146;17.120;2023-10-19T07:26:11;7.41;73.52
66373;SHT30;53168;51.146;17.120;2023-10-19T07:28:45;7.47;73.60
66373;SHT30;53168;51.146;17.120;2023-10-19T07:31:19;7.53;73.58
66373;SHT30;53168;51.146;17.120;2023-10-19T07:33:55;7.55;73.48
66373;SHT30;53168;51.146;17.120;2023-10-19T07:36:29;7.58;73.49
66373;SHT30;53168;51.146;17.120;2023-10-19T07:39:03;7.62;73.47
66373;SHT30;53168;51.146;17.120;2023-10-19T07:41:44;7.70;73.58
66373;SHT30;53168;51.146;17.120;2023-10-19T07:44:18;7.80;73.60
66373;SHT30;53168;51.146;17.120;2023-10-19T07:46:53;7.94;73.54
66373;SHT30;53168;51.146;17.120;2023-10-19T07:49:27;8.05;73.42
66373;SHT30;53168;51.146;17.120;2023-10-19T07:52:01;8.14;73.48
66373;SHT30;53168;51.146;17.120;2023-10-19T07:54:36;8.23;73.42
66373;SHT30;53168;51.146;17.120;2023-10-19T07:57:11;8.35;73.47
66373;SHT30;53168;51.146;17.120;2023-10-19T07:59:46;8.49;73.29
66373;SHT30;53168;51.146;17.120;2023-10-19T08:02:20;8.59;73.22
66373;SHT30;53168;51.146;17.120;2023-10-19T08:04:57;8.65;73.19
66373;SHT30;53168;51.146;17.120;2023-10-19T08:07:32;8.69;73.01
66373;SHT30;53168;51.146;17.120;2023-10-19T09:38:44;9.30;74.04
66373;SHT30;53168;51.146;17.120;2023-10-19T09:41:23;9.35;74.08
66373;SHT30;53168;51.146;17.120;2023-10-19T09:44:06;9.35;73.98
66373;SHT30;53168;51.146;17.120;2023-10-19T09:46:40;9.35;74.04
66373;SHT30;53168;51.146;17.120;2023-10-19T09:49:15;9.35;74.14
66373;SHT30;53168;51.146;17.120;2023-10-19T09:51:49;9.32;74.20
66373;SHT30;53168;51.146;17.120;2023-10-19T09:54:49;9.32;74.26
66373;SHT30;53168;51.146;17.120;2023-10-19T09:57:31;9.35;74.35
66373;SHT30;53168;51.146;17.120;2023-10-19T10:00:07;9.36;74.37
66373;SHT30;53168;51.146;17.120;2023-10-19T10:02:43;9.36;74.45
66373;SHT30;53168;51.146;17.120;2023-10-19T10:05:48;9.35;74.54
66373;SHT30;53168;51.146;17.120;2023-10-19T10:11:32;9.39;74.57
66373;SHT30;53168;51.146;17.120;2023-10-19T10:14:22;9.38;74.64
66373;SHT30;53168;51.146;17.120;2023-10-19T10:17:01;9.40;74.78
66373;SHT30;53168;51.146;17.120;2023-10-19T10:19:31;9.42;74.72
66373;SHT30;53168;51.146;17.120;2023-10-19T10:22:10;9.41;74.73
66373;SHT30;53168;51.146;17.120;2023-10-19T10:24:42;9.39;74.88
66373;SHT30;53168;51.146;17.120;2023-10-19T10:27:11;9.40;75.04
66373;SHT30;53168;51.146;17.120;2023-10-19T10:29:56;9.46;75.19
66373;SHT30;53168;51.146;17.120;2023-10-19T10:32:44;9.48;75.09
66373;SHT30;53168;51.146;17.120;2023-10-19T10:35:53;9.45;75.22
66373;SHT30;53168;51.146;17.120;2023-10-19T10:38:23;9.46;75.51
66373;SHT30;53168;51.146;17.120;2023-10-19T10:40:55;9.48;75.60
66373;SHT30;53168;51.146;17.120;2023-10-19T10:43:24;9.44;75.60
66373;SHT30;53168;51.146;17.120;2023-10-19T10:46:04;9.42;75.69
66373;SHT30;53168;51.146;17.120;2023-10-19T10:48:42;9.41;75.84
66373;SHT30;53168;51.146;17.120;2023-10-19T10:51:21;9.37;75.98
66373;SHT30;53168;51.146;17.120;2023-10-19T10:53:53;9.35;76.08
66373;SHT30;53168;51.146;17.120;2023-10-19T10:56:24;9.30;76.18
66373;SHT30;53168;51.146;17.120;2023-10-19T10:58:57;9.24;76.26
66373;SHT30;53168;51.146;17.120;2023-10-19T11:01:31;9.22;76.40
66373;SHT30;53168;51.146;17.120;2023-10-19T11:04:10;9.26;76.50
66373;SHT30;53168;51.146;17.120;2023-10-19T11:06:49;9.25;76.60
66373;SHT30;53168;51.146;17.120;2023-10-19T11:09:21;9.25;76.70
66373;SHT30;53168;51.146;17.120;2023-10-19T11:11:53;9.23;76.71
66373;SHT30;53168;51.146;17.120;2023-10-19T11:14:23;9.22;76.82
66373;SHT30;53168;51.146;17.120;2023-10-19T11:16:55;9.19;76.90
66373;SHT30;53168;51.146;17.120;2023-10-19T11:19:42;9.14;77.08
66373;SHT30;53168;51.146;17.120;2023-10-19T11:22:14;9.10;77.20
66373;SHT30;53168;51.146;17.120;2023-10-19T11:25:24;9.08;77.27
66373;SHT30;53168;51.146;17.120;2023-10-19T11:28:24;9.11;77.39
66373;SHT30;53168;51.146;17.120;2023-10-19T11:31:14;9.10;77.38
66373;SHT30;53168;51.146;17.120;2023-10-19T11:33:50;9.06;77.47
66373;SHT30;53168;51.146;17.120;2023-10-19T11:36:24;9.06;77.60
66373;SHT30;53168;51.146;17.120;2023-10-19T11:38:59;9.10;77.62
66373;SHT30;53168;51.146;17.120;2023-10-19T11:41:51;9.12;77.68
66373;SHT30;53168;51.146;17.120;2023-10-19T11:44:26;9.15;77.70
66373;SHT30;53168;51.146;17.120;2023-10-19T11:46:57;9.18;77.72
66373;SHT30;53168;51.146;17.120;2023-10-19T11:49:29;9.23;77.78
66373;SHT30;53168;51.146;17.120;2023-10-19T11:52:08;9.28;77.80
66373;SHT30;53168;51.146;17.120;2023-10-19T11:54:38;9.29;77.80
66373;SHT30;53168;51.146;17.120;2023-10-19T11:57:08;9.32;77.84
66373;SHT30;53168;51.146;17.120;2023-10-19T11:59:38;9.30;77.90
66373;SHT30;53168;51.146;17.120;2023-10-19T12:02:08;9.28;78.00
66373;SHT30;53168;51.146;17.120;2023-10-19T12:04:39;9.29;78.18
66373;SHT30;53168;51.146;17.120;2023-10-19T12:07:11;9.31;78.23
66373;SHT30;53168;51.146;17.120;2023-10-19T12:09:40;9.33;78.33
66373;SHT30;53168;51.146;17.120;2023-10-19T12:12:13;9.33;78.25
66373;SHT30;53168;51.146;17.120;2023-10-19T12:14:45;9.31;78.31
66373;SHT30;53168;51.146;17.120;2023-10-19T12:17:15;9.29;78.38
66373;SHT30;53168;51.146;17.120;2023-10-19T12:19:46;9.29;78.41
66373;SHT30;53168;51.146;17.120;2023-10-19T12:22:15;9.30;78.41
66373;SHT30;53168;51.146;17.120;2023-10-19T12:24:45;9.29;78.46
66373;SHT30;53168;51.146;17.120;2023-10-19T12:27:17;9.31;78.58
66373;SHT30;53168;51.146;17.120;2023-10-19T12:29:47;9.31;78.60
66373;SHT30;53168;51.146;17.120;2023-10-19T12:32:18;9.34;78.64
66373;SHT30;53168;51.146;17.120;2023-10-19T12:34:48;9.37;78.64
66373;SHT30;53168;51.146;17.120;2023-10-19T12:37:25;9.38;78.69
66373;SHT30;53168;51.146;17.120;2023-10-19T12:39:56;9.43;78.74
66373;SHT30;53168;51.146;17.120;2023-10-19T12:42:29;9.47;78.72
66373;SHT30;53168;51.146;17.120;2023-10-19T12:44:59;9.52;78.72
66373;SHT30;53168;51.146;17.120;2023-10-19T12:47:31;9.59;78.77
66373;SHT30;53168;51.146;17.120;2023-10-19T12:50:04;9.64;78.62
66373;SHT30;53168;51.146;17.120;2023-10-19T12:52:35;9.67;78.63
66373;SHT30;53168;51.146;17.120;2023-10-19T12:55:07;9.75;78.65
66373;SHT30;53168;51.146;17.120;2023-10-19T12:57:40;9.82;78.60
66373;SHT30;53168;51.146;17.120;2023-10-19T13:00:12;9.87;78.60
66373;SHT30;53168;51.146;17.120;2023-10-19T13:02:54;9.90;78.60
66373;SHT30;53168;51.146;17.120;2023-10-19T13:05:32;9.89;78.59
66373;SHT30;53168;51.146;17.120;2023-10-19T13:08:06;9.92;78.72
66373;SHT30;53168;51.146;17.120;2023-10-19T13:10:37;9.97;78.70
66373;SHT30;53168;51.146;17.120;2023-10-19T13:13:09;10.01;78.70
66373;SHT30;53168;51.146;17.120;2023-10-19T13:15:42;10.00;78.65
66373;SHT30;53168;51.146;17.120;2023-10-19T13:18:14;9.96;78.66
66373;SHT30;53168;51.146;17.120;2023-10-19T13:20:48;9.96;78.71
66373;SHT30;53168;51.146;17.120;2023-10-19T13:23:21;9.98;78.76
66373;SHT30;53168;51.146;17.120;2023-10-19T13:25:51;9.98;78.75
66373;SHT30;53168;51.146;17.120;2023-10-19T13:28:23;9.98;78.76
66373;SHT30;53168;51.146;17.120;2023-10-19T13:30:55;9.96;78.90
66373;SHT30;53168;51.146;17.120;2023-10-19T13:33:26;9.97;78.90
66373;SHT30;53168;51.146;17.120;2023-10-19T13:35:56;9.95;78.86
66373;SHT30;53168;51.146;17.120;2023-10-19T13:38:32;9.93;78.91
66373;SHT30;53168;51.146;17.120;2023-10-19T13:41:04;9.91;78.95
66373;SHT30;53168;51.146;17.120;2023-10-19T13:43:52;9.90;78.99
66373;SHT30;53168;51.146;17.120;2023-10-19T13:46:26;9.89;79.04
66373;SHT30;53168;51.146;17.120;2023-10-19T13:48:57;9.92;79.16
66373;SHT30;53168;51.146;17.120;2023-10-19T13:51:28;9.94;79.19
66373;SHT30;53168;51.146;17.120;2023-10-19T13:53:58;9.94;79.10
66373;SHT30;53168;51.146;17.120;2023-10-19T13:56:28;9.93;79.13
66373;SHT30;53168;51.146;17.120;2023-10-19T13:58:58;9.93;79.20
66373;SHT30;53168;51.146;17.120;2023-10-19T14:01:28;9.94;79.22
66373;SHT30;53168;51.146;17.120;2023-10-19T14:03:58;9.93;79.22
66373;SHT30;53168;51.146;17.120;2023-10-19T14:06:27;9.95;79.31
66373;SHT30;53168;51.146;17.120;2023-10-19T14:08:57;9.96;79.35
66373;SHT30;53168;51.146;17.120;2023-10-19T14:11:27;9.97;79.39
66373;SHT30;53168;51.146;17.120;2023-10-19T14:13:56;9.96;79.41
66373;SHT30;53168;51.146;17.120;2023-10-19T14:16:26;9.96;79.41
66373;SHT30;53168;51.146;17.120;2023-10-19T14:18:56;9.97;79.43
66373;SHT30;53168;51.146;17.120;2023-10-19T14:21:25;9.95;79.50
66373;SHT30;53168;51.146;17.120;2023-10-19T14:23:56;9.92;79.50
66373;SHT30;53168;51.146;17.120;2023-10-19T14:26:25;9.90;79.52
66373;SHT30;53168;51.146;17.120;2023-10-19T14:28:55;9.90;79.60
66373;SHT30;53168;51.146;17.120;2023-10-19T14:31:25;9.90;79.71
66373;SHT30;53168;51.146;17.120;2023-10-19T14:33:54;9.91;79.70
66373;SHT30;53168;51.146;17.120;2023-10-19T14:36:26;9.89;79.66
66373;SHT30;53168;51.146;17.120;2023-10-19T14:39:21;9.86;79.70
66373;SHT30;53168;51.146;17.120;2023-10-19T14:43:26;9.84;79.74
66373;SHT30;53168;51.146;17.120;2023-10-19T14:46:16;9.85;79.77
66373;SHT30;53168;51.146;17.120;2023-10-19T14:48:46;9.85;79.80
66373;SHT30;53168;51.146;17.120;2023-10-19T14:51:16;9.85;79.81
66373;SHT30;53168;51.146;17.120;2023-10-19T14:53:46;9.84;79.83
66373;SHT30;53168;51.146;17.120;2023-10-19T14:56:15;9.81;79.85
66373;SHT30;53168;51.146;17.120;2023-10-19T14:58:49;9.77;79.95
66373;SHT30;53168;51.146;17.120;2023-10-19T15:01:24;9.74;79.99
66373;SHT30;53168;51.146;17.120;2023-10-19T15:08:55;9.69;80.10
66373;SHT30;53168;51.146;17.120;2023-10-19T15:23:46;9.71;80.20
66373;SHT30;53168;51.146;17.120;2023-10-19T15:26:22;9.71;80.20
66373;SHT30;53168;51.146;17.120;2023-10-19T15:32:35;9.71;80.29
66373;SHT30;53168;51.146;17.120;2023-10-19T15:35:13;9.72;80.30
66373;SHT30;53168;51.146;17.120;2023-10-19T15:38:00;9.73;80.31
66373;SHT30;53168;51.146;17.120;2023-10-19T15:40:42;9.74;80.33
66373;SHT30;53168;51.146;17.120;2023-10-19T15:48:06;9.78;80.30
66373;SHT30;53168;51.146;17.120;2023-10-19T15:54:12;9.80;80.36
66373;SHT30;53168;51.146;17.120;2023-10-19T15:56:42;9.81;80.36
66373;SHT30;53168;51.146;17.120;2023-10-19T15:59:12;9.78;80.37
66373;SHT30;53168;51.146;17.120;2023-10-19T16:01:42;9.74;80.44
66373;SHT30;53168;51.146;17.120;2023-10-19T16:04:15;9.70;80.55
66373;SHT30;53168;51.146;17.120;2023-10-19T16:06:45;9.66;80.59
66373;SHT30;53168;51.146;17.120;2023-10-19T16:09:16;9.64;80.66
66373;SHT30;53168;51.146;17.120;2023-10-19T16:11:55;9.64;80.70
66373;SHT30;53168;51.146;17.120;2023-10-19T16:14:26;9.64;80.72
66373;SHT30;53168;51.146;17.120;2023-10-19T16:16:56;9.62;80.72
66373;SHT30;53168;51.146;17.120;2023-10-19T16:19:26;9.62;80.77
66373;SHT30;53168;51.146;17.120;2023-10-19T16:21:59;9.62;80.80
66373;SHT30;53168;51.146;17.120;2023-10-19T16:24:30;9.60;80.80
66373;SHT30;53168;51.146;17.120;2023-10-19T16:27:03;9.61;80.87
66373;SHT30;53168;51.146;17.120;2023-10-19T16:29:32;9.62;80.90
66373;SHT30;53168;51.146;17.120;2023-10-19T16:32:04;9.63;80.94
66373;SHT30;53168;51.146;17.120;2023-10-19T16:34:37;9.65;80.97
66373;SHT30;53168;51.146;17.120;2023-10-19T16:37:08;9.66;80.92
66373;SHT30;53168;51.146;17.120;2023-10-19T16:39:37;9.63;80.92
66373;SHT30;53168;51.146;17.120;2023-10-19T16:42:07;9.63;80.96
66373;SHT30;53168;51.146;17.120;2023-10-19T16:44:37;9.59;80.95
66373;SHT30;53168;51.146;17.120;2023-10-19T16:47:06;9.56;81.04
66373;SHT30;53168;51.146;17.120;2023-10-19T16:49:38;9.54;81.10
66373;SHT30;53168;51.146;17.120;2023-10-19T16:52:07;9.52;81.10
66373;SHT30;53168;51.146;17.120;2023-10-19T16:54:37;9.51;81.20
66373;SHT30;53168;51.146;17.120;2023-10-19T16:57:07;9.50;81.20
66373;SHT30;53168;51.146;17.120;2023-10-19T17:03:32;9.50;81.23
66373;SHT30;53168;51.146;17.120;2023-10-19T17:06:22;9.50;81.30
66373;SHT30;53168;51.146;17.120;2023-10-19T17:09:15;9.50;81.29
66373;SHT30;53168;51.146;17.120;2023-10-19T17:12:04;9.50;81.34
66373;SHT30;53168;51.146;17.120;2023-10-19T17:14:37;9.50;81.40
66373;SHT30;53168;51.146;17.120;2023-10-19T17:18:28;9.50;81.39
66373;SHT30;53168;51.146;17.120;2023-10-19T17:21:00;9.49;81.45
66373;SHT30;53168;51.146;17.120;2023-10-19T17:23:31;9.49;81.50
66373;SHT30;53168;51.146;17.120;2023-10-19T17:26:03;9.48;81.50
66373;SHT30;53168;51.146;17.120;2023-10-19T17:28:36;9.48;81.51
66373;SHT30;53168;51.146;17.120;2023-10-19T17:31:50;9.49;81.53
66373;SHT30;53168;51.146;17.120;2023-10-19T17:35:12;9.49;81.60
66373;SHT30;53168;51.146;17.120;2023-10-19T17:38:05;9.52;81.60
66373;SHT30;53168;51.146;17.120;2023-10-19T17:41:09;9.52;81.57
66373;SHT30;53168;51.146;17.120;2023-10-19T17:44:20;9.51;81.60
66373;SHT30;53168;51.146;17.120;2023-10-19T18:16:15;9.73;81.60
66373;SHT30;53168;51.146;17.120;2023-10-19T18:19:25;9.73;81.62
66373;SHT30;53168;51.146;17.120;2023-10-19T18:21:58;9.73;81.61
66373;SHT30;53168;51.146;17.120;2023-10-19T18:24:28;9.73;81.70
66373;SHT30;53168;51.146;17.120;2023-10-19T18:40:32;9.66;81.96
66373;SHT30;53168;51.146;17.120;2023-10-19T18:43:51;9.65;81.98
66373;SHT30;53168;51.146;17.120;2023-10-19T18:54:15;9.63;82.00
66373;SHT30;53168;51.146;17.120;2023-10-19T19:09:17;9.65;82.06
66373;SHT30;53168;51.146;17.120;2023-10-19T19:12:12;9.64;82.10
66373;SHT30;53168;51.146;17.120;2023-10-19T19:18:53;9.60;82.10
66373;SHT30;53168;51.146;17.120;2023-10-19T19:22:01;9.57;82.11
66373;SHT30;53168;51.146;17.120;2023-10-19T19:24:35;9.56;82.22
66373;SHT30;53168;51.146;17.120;2023-10-19T19:27:15;9.53;82.21
66373;SHT30;53168;51.146;17.120;2023-10-19T19:30:25;9.52;82.26
66373;SHT30;53168;51.146;17.120;2023-10-19T19:33:21;9.51;82.30
66373;SHT30;53168;51.146;17.120;2023-10-19T19:36:29;9.50;82.31
66373;SHT30;53168;51.146;17.120;2023-10-19T19:42:46;9.48;82.37
66373;SHT30;53168;51.146;17.120;2023-10-19T19:45:42;9.47;82.40
66373;SHT30;53168;51.146;17.120;2023-10-19T19:57:21;9.44;82.49
66373;SHT30;53168;51.146;17.120;2023-10-19T20:11:24;9.44;82.43
66373;SHT30;53168;51.146;17.120;2023-10-19T20:14:59;9.45;82.46
66373;SHT30;53168;51.146;17.120;2023-10-19T20:17:50;9.44;82.40
66373;SHT30;53168;51.146;17.120;2023-10-19T20:20:26;9.43;82.42
66373;SHT30;53168;51.146;17.120;2023-10-19T20:23:00;9.42;82.46
66373;SHT30;53168;51.146;17.120;2023-10-19T20:25:54;9.41;82.45
66373;SHT30;53168;51.146;17.120;2023-10-19T20:29:28;9.38;82.50
66373;SHT30;53168;51.146;17.120;2023-10-19T20:33:45;9.35;82.50
66373;SHT30;53168;51.146;17.120;2023-10-19T20:40:24;9.30;82.62
66373;SHT30;53168;51.146;17.120;2023-10-19T20:42:58;9.27;82.63
66373;SHT30;53168;51.146;17.120;2023-10-19T20:45:30;9.24;82.70
66373;SHT30;53168;51.146;17.120;2023-10-19T20:48:00;9.22;82.70